This is the latest recevied weather packets stored in our database for station/object VK3BKO-13. If no packets are shown the sender has not sent any weather packets the latest 1 day(s).
| Time | Temp. | Humidity | Pressure | Rain* | Wind** | Luminosity | Snow |
|---|---|---|---|---|---|---|---|
| 1836274798 | 15° C | 53% | 1010.9 hPa | 0.51 mm | 1.79 m/s, 290° | 433 W/m² | - |
| 1836273898 | 13.89° C | 54% | 1010.9 hPa | 0.51 mm | 2.68 m/s, 302° | 344 W/m² | - |
| 1778059924 | 12.78° C | 91% | 1014.6 hPa | 8.64 mm | 1.79 m/s, 353° | 0 W/m² | - |
| 1778059024 | 12.78° C | 91% | 1014.3 hPa | 8.64 mm | 1.34 m/s, 351° | 0 W/m² | - |
| 1778058124 | 12.78° C | 90% | 1014.3 hPa | 8.64 mm | 2.68 m/s, 10° | 0 W/m² | - |
| 1778057224 | 12.78° C | 90% | 1014.3 hPa | 7.87 mm | 1.79 m/s, 325° | 0 W/m² | - |
| 1778056323 | 12.78° C | 89% | 1014.6 hPa | 7.62 mm | 1.79 m/s, 279° | 0 W/m² | - |
| 1778055423 | 12.78° C | 86% | 1014.6 hPa | 5.08 mm | 1.79 m/s, 311° | 0 W/m² | - |
| 1778054523 | 13.89° C | 80% | 1014.9 hPa | 1.52 mm | 1.34 m/s, 321° | 0 W/m² | - |
| 1778053623 | 14.44° C | 73% | 1013.6 hPa | 0 mm | 2.68 m/s, 15° | 0 W/m² | - |
| 1778052723 | 15.56° C | 70% | 1013.2 hPa | 0 mm | 2.68 m/s, 327° | 1 W/m² | - |
| 1778051823 | 16.11° C | 65% | 1013.2 hPa | 0 mm | 1.79 m/s, 350° | 5 W/m² | - |
| 1778050924 | 16.11° C | 62% | 1013.2 hPa | 0 mm | 3.13 m/s, 18° | 15 W/m² | - |
| 1778050024 | 16.67° C | 61% | 1013.6 hPa | 0 mm | 2.68 m/s, 343° | 18 W/m² | - |
| 1778049124 | 16.67° C | 60% | 1013.6 hPa | 0 mm | 4.02 m/s, 311° | 37 W/m² | - |
| 1778048223 | 16.67° C | 60% | 1013.6 hPa | 0 mm | 2.24 m/s, 61° | 46 W/m² | - |
| 1778047323 | 17.78° C | 57% | 1013.6 hPa | 0 mm | 2.68 m/s, 36° | 95 W/m² | - |
| 1778046423 | 18.33° C | 54% | 1013.9 hPa | 0 mm | 2.24 m/s, 332° | 121 W/m² | - |
| 1778045523 | 18.33° C | 53% | 1014.3 hPa | 0 mm | 3.58 m/s, 12° | 152 W/m² | - |
| 1778044623 | 18.89° C | 52% | 1014.6 hPa | 0 mm | 3.58 m/s, 278° | 185 W/m² | - |
| 1778043724 | 18.89° C | 52% | 1014.6 hPa | 0 mm | 2.24 m/s, 11° | 138 W/m² | - |
| 1778042823 | 18.89° C | 53% | 1015.3 hPa | 0 mm | 2.68 m/s, 300° | 164 W/m² | - |
| 1778041924 | 18.89° C | 53% | 1015.3 hPa | 0 mm | 2.68 m/s, 293° | 345 W/m² | - |
| 1778041024 | 17.78° C | 56% | 1015.6 hPa | 0 mm | 2.68 m/s, 10° | 423 W/m² | - |
| 1778040123 | 17.78° C | 58% | 1015.9 hPa | 0 mm | 3.13 m/s, 9° | 154 W/m² | - |
* Rain since midnight (hover to see other rain measurements)
** Current wind speed in m/s (hover to see current wind gust speed)